Dyess AFB, Texas
Current Conditions -  °F | °C
As of 1:58 PM on Friday 21 Nov 2014 (Local Time) from KDYS Reporting Station
Clear Clear  
Wind Chill: 70°   Ceiling: Unl
Heat Index: 70°   Visibility: 10mi
Dew Point: 54°   Wind: 12mph
Humidity: 57%   Direction: 170°S
Pressure: 29.98"   Gusts: NA
Location:  32.42°N, 99.82°W
Report Text: KDYS 211958Z AUTO 17010KT 10SM CLR 21/12 A2998 RMK AO2 SLP128 T02100121 $
Loading
Personal Weather Stations






























Interactive Weather Map New forecast layout! Learn more

10-Day Weather Forecast

Advertisements
Track Severe Weather on mobile